Garden Spring, Nevada Weather observations

Data are for 10 minute period ending at time listed.
 Day   Time    Ave.   Ave.  Ave.  Vector   Max.   Stn.    Total    Solar   Ave.  
  of    of     Air    Rel.  Wind   Wind    Wind   Baro.  Precip.   Rad.    Soil  
Year   Day     Temp.  Hum.  Speed  Dir.    Gust   Pres.                    Temp. 
2015   (PST)    F      %     mph   deg.    mph     mb.     in.     W/m2     F    
--------------------------------------------------------------------------------- 
 241    7:00   73.7    36    4.0   281      6.7   854.4    0.00      52    76.3  
 241    8:00   83.3    26    2.3    26      6.4   854.8    0.00     245    76.6  
 241    9:00   84.9    24    4.8    82      9.8   855.0    0.00     413    76.6  
 241   10:00   87.0    23    4.8   109     10.9   855.1    0.00     583    77.1  
 241   11:00   88.6    23    5.5   119     14.0   855.2    0.00     723    78.0  
 241   12:00   90.6    22    8.6   168     18.5   854.9    0.00     878    79.0  
 241   13:00   91.8    20    9.0   177     22.3   854.3    0.00     861    80.9  
 241   14:00   92.6    19    9.5   176     20.0   853.7    0.00     781    83.7  
 241   15:00   92.6    17    9.4   171     20.0   853.1    0.00     664    86.1  
 241   16:00   92.0    18    7.1   176     19.8   852.4    0.00     406    87.7  
 241   17:00   91.8    18    6.7   177     16.3   851.7    0.00     344    88.4  
 241   18:00   91.0    18    7.7   173     17.4   851.3    0.00     202    88.3  
 241   19:00   88.8    19    8.4   184     19.8   851.2    0.00      81    87.7  
 241   20:00   85.7    23    3.8   203     10.0   851.3    0.00       1    86.8  
 241   21:00   83.8    25    4.5   216     10.0   851.5    0.00       0    85.9  
 241   22:00   80.8    27    5.2   228     10.3   851.7    0.00       0    84.9  
 241   23:00   78.6    29    2.4   234      8.0   851.7    0.00       0    83.9  
 242    0:00   76.9    29    4.7   232      9.4   852.0    0.00       0    83.0  
 242    1:00   75.3    30    4.4   242      7.8   852.1    0.00       0    82.1  
 242    2:00   76.3    29    4.9   227      8.2   852.0    0.00       0    81.2  
 242    3:00   74.3    33    3.4   228      7.6   851.8    0.00       0    80.3  
 242    4:00   71.4    38    3.6   274      6.8   851.9    0.00       0    79.5  
 242    5:00   70.8    38    2.2   258      4.3   852.1    0.00       0    78.8  
 242    6:00   68.2    44    3.9   269      5.7   852.4    0.00       0    78.1  

Return to Garden Spring, Nevada graphs page.


Western Regional Climate Center,wrcc@dri.edu